Time;durP1;ratioP1;P1;durP2;ratioP2;P2;SDS_P1;SDS_P2;PMS_P1;PMS_P2;Temp;Humidity;BMP_temperature;BMP_pressure;BME280_temperature;BME280_humidity;BME280_pressure;Samples;Min_cycle;Max_cycle;Signal;HPM_P1;HPM_P2
2023/08/25 00:02:25;;;;;;;8.77;7.87;;;;;;;23.21;60.45;100468.72;6097349;23;20478;-80
2023/08/25 00:04:55;;;;;;;8.83;7.97;;;;;;;23.17;60.81;100462.13;6097592;23;20816;-81
2023/08/25 00:07:28;;;;;;;7.93;7.33;;;;;;;23.22;59.96;100464.84;6097353;23;20883;-81
2023/08/25 00:09:58;;;;;;;7.87;7.07;;;;;;;23.11;60.45;100463.31;6098423;23;20491;-81
2023/08/25 00:12:27;;;;;;;8.20;7.43;;;;;;;23.15;60.15;100443.09;6098886;23;20702;-82
2023/08/25 00:14:56;;;;;;;10.27;8.00;;;;;;;23.12;60.37;100431.84;6097599;23;20705;-81
2023/08/25 00:17:25;;;;;;;9.00;7.53;;;;;;;23.13;59.85;100422.47;6137273;23;20420;-82
2023/08/25 00:19:55;;;;;;;8.97;8.17;;;;;;;23.17;59.92;100429.03;6175023;23;20368;-83
2023/08/25 00:22:25;;;;;;;8.60;7.90;;;;;;;23.12;59.90;100415.28;6176480;23;20384;-84
2023/08/25 00:24:56;;;;;;;8.17;7.47;;;;;;;23.21;58.85;100424.53;6177656;23;20353;-84
2023/08/25 00:27:26;;;;;;;13.37;7.73;;;;;;;23.12;59.44;100415.28;6178683;23;20431;-81
2023/08/25 00:29:55;;;;;;;7.97;7.37;;;;;;;23.14;59.53;100413.06;6153039;23;20391;-84
2023/08/25 00:32:25;;;;;;;9.63;8.63;;;;;;;23.06;59.91;100410.94;6156373;23;20585;-82
2023/08/25 00:34:55;;;;;;;8.27;7.37;;;;;;;23.13;59.13;100416.94;6182781;23;20365;-82
2023/08/25 00:37:26;;;;;;;7.87;7.27;;;;;;;23.08;59.57;100417.00;6182639;23;20412;-81
2023/08/25 00:39:57;;;;;;;7.60;6.80;;;;;;;23.13;59.70;100411.41;6156803;23;20372;-84
2023/08/25 00:42:26;;;;;;;7.70;7.00;;;;;;;23.15;59.54;100410.00;6182716;23;20385;-83
2023/08/25 00:44:56;;;;;;;8.03;7.20;;;;;;;23.02;60.05;100409.91;6177845;23;20367;-84
2023/08/25 00:47:25;;;;;;;8.67;7.87;;;;;;;23.00;60.39;100403.84;6170796;23;20433;-83
2023/08/25 00:49:56;;;;;;;8.90;8.00;;;;;;;22.96;60.28;100403.63;6156107;23;20371;-83
2023/08/25 00:52:26;;;;;;;8.80;7.90;;;;;;;22.91;60.81;100393.47;6157652;23;20395;-83
2023/08/25 00:54:58;;;;;;;8.30;7.70;;;;;;;22.88;61.20;100399.59;6182221;23;20356;-83
2023/08/25 00:57:27;;;;;;;8.43;7.63;;;;;;;23.02;59.93;100407.13;6158646;23;20381;-83
2023/08/25 00:59:57;;;;;;;10.90;7.50;;;;;;;22.96;60.00;100407.22;6158117;23;20372;-83
2023/08/25 01:02:26;;;;;;;10.43;8.47;;;;;;;23.02;59.79;100409.91;6158568;23;20364;-84
2023/08/25 01:04:57;;;;;;;8.70;7.13;;;;;;;23.02;59.97;100412.66;6131900;23;20423;-84
2023/08/25 01:07:27;;;;;;;7.67;7.07;;;;;;;22.91;60.59;100396.25;6131654;23;20412;-85
2023/08/25 01:09:58;;;;;;;8.23;7.43;;;;;;;22.93;60.57;100384.91;6134195;23;20405;-85
2023/08/25 01:12:41;;;;;;;9.00;7.37;;;;;;;22.85;61.05;100380.84;6157778;23;20349;-84
2023/08/25 01:15:21;;;;;;;8.93;8.00;;;;;;;22.80;61.23;100375.41;6131639;23;20383;-83
2023/08/25 01:17:57;;;;;;;9.33;7.97;;;;;;;22.92;60.72;100366.72;6131569;23;20460;-83
2023/08/25 01:20:27;;;;;;;8.07;7.37;;;;;;;23.01;60.63;100358.59;6159057;23;20810;-83
2023/08/25 01:23:14;;;;;;;8.43;7.50;;;;;;;23.01;60.63;100342.03;6133125;23;20373;-83
2023/08/25 01:25:46;;;;;;;8.43;7.53;;;;;;;22.86;61.41;100321.00;6134126;23;20489;-84
2023/08/25 01:28:15;;;;;;;8.07;7.27;;;;;;;23.07;61.01;100330.63;6132674;23;20425;-83
2023/08/25 01:30:45;;;;;;;9.20;8.40;;;;;;;22.87;61.57;100326.22;6134302;23;20410;-84
2023/08/25 01:33:14;;;;;;;9.47;8.57;;;;;;;22.80;62.06;100305.66;6157785;23;20415;-84
2023/08/25 01:35:53;;;;;;;8.27;7.57;;;;;;;22.78;62.53;100324.44;6157310;23;20360;-85
2023/08/25 01:38:28;;;;;;;8.23;7.53;;;;;;;22.73;62.79;100305.19;6158151;23;20352;-85
2023/08/25 01:41:08;;;;;;;8.73;7.83;;;;;;;22.61;63.58;100302.81;6143281;23;20398;-82
2023/08/25 01:43:43;;;;;;;8.90;8.10;;;;;;;22.68;63.63;100306.03;6175899;23;20386;-84
2023/08/25 01:46:15;;;;;;;9.23;8.33;;;;;;;22.57;64.02;100310.03;6157492;23;20709;-84
2023/08/25 01:48:49;;;;;;;10.83;9.30;;;;;;;22.53;64.31;100314.50;6182157;23;20429;-81
2023/08/25 01:51:19;;;;;;;8.70;7.90;;;;;;;22.69;64.42;100324.25;6182812;23;20405;-82
2023/08/25 01:53:53;;;;;;;9.00;8.20;;;;;;;22.62;64.71;100318.25;6156976;23;20449;-82
2023/08/25 01:56:25;;;;;;;9.50;8.70;;;;;;;22.64;64.71;100321.56;6157554;23;20509;-82
2023/08/25 01:58:54;;;;;;;8.73;7.93;;;;;;;22.54;65.09;100321.69;6161090;23;20357;-85
2023/08/25 02:01:25;;;;;;;9.13;8.23;;;;;;;22.49;65.51;100321.75;6158850;23;20384;-81
2023/08/25 02:03:55;;;;;;;9.30;8.60;;;;;;;22.49;65.36;100314.28;6158795;23;20385;-84
2023/08/25 02:06:26;;;;;;;10.00;9.07;;;;;;;22.54;65.44;100316.16;6132947;23;20411;-85
2023/08/25 02:08:56;;;;;;;9.70;8.77;;;;;;;22.52;65.66;100310.09;6133782;23;20488;-82
2023/08/25 02:11:26;;;;;;;9.90;8.80;;;;;;;22.50;65.49;100304.91;6133323;23;20388;-83
2023/08/25 02:13:55;;;;;;;10.33;8.50;;;;;;;22.47;66.02;100299.16;6132878;23;20420;-84
2023/08/25 02:16:25;;;;;;;9.87;9.03;;;;;;;22.48;66.42;100300.78;6158702;23;20857;-84
2023/08/25 02:18:54;;;;;;;10.27;8.73;;;;;;;22.49;66.12;100289.47;6156129;23;20367;-83
2023/08/25 02:21:24;;;;;;;11.33;9.40;;;;;;;22.52;66.30;100285.28;6131178;23;20413;-84
2023/08/25 02:23:53;;;;;;;10.47;9.57;;;;;;;22.49;66.47;100295.00;6131463;23;20462;-84
2023/08/25 02:26:22;;;;;;;10.73;9.40;;;;;;;22.50;66.92;100288.38;6157354;23;20472;-84
2023/08/25 02:28:53;;;;;;;10.10;9.20;;;;;;;22.45;67.53;100290.38;6129737;23;20415;-84
2023/08/25 02:31:22;;;;;;;11.13;9.87;;;;;;;22.44;67.31;100283.19;6130288;23;20721;-84
2023/08/25 02:33:52;;;;;;;11.80;9.47;;;;;;;22.47;67.69;100283.44;6156142;23;20386;-85
2023/08/25 02:36:22;;;;;;;10.80;9.27;;;;;;;22.48;67.57;100287.00;6157857;23;20410;-84
2023/08/25 02:38:51;;;;;;;11.47;9.10;;;;;;;22.42;67.92;100282.66;6135786;23;20397;-84
2023/08/25 02:41:21;;;;;;;14.60;9.83;;;;;;;22.36;68.28;100281.94;6159067;23;20451;-84
2023/08/25 02:43:50;;;;;;;10.50;8.50;;;;;;;22.34;68.82;100275.88;6156474;23;20695;-85
2023/08/25 02:46:23;;;;;;;10.70;9.60;;;;;;;22.33;68.77;100279.75;6156782;23;20706;-84
2023/08/25 02:48:52;;;;;;;11.20;10.40;;;;;;;22.36;68.64;100265.41;6130067;23;20408;-84
2023/08/25 02:51:21;;;;;;;8.90;8.20;;;;;;;22.50;67.81;100271.00;6130826;23;20424;-84
2023/08/25 02:53:50;;;;;;;14.03;9.70;;;;;;;22.53;68.15;100267.63;6156990;23;20386;-84
2023/08/25 02:56:19;;;;;;;10.13;9.20;;;;;;;22.53;67.95;100260.19;6148023;23;20468;-83
2023/08/25 02:58:49;;;;;;;11.70;9.37;;;;;;;22.51;68.43;100258.88;6179952;23;20377;-83
2023/08/25 03:01:19;;;;;;;12.93;11.60;;;;;;;22.46;68.40;100259.72;6154523;23;20409;-85
2023/08/25 03:03:48;;;;;;;11.90;10.80;;;;;;;22.42;69.32;100252.34;6161291;23;20383;-85
2023/08/25 03:06:18;;;;;;;9.90;9.10;;;;;;;22.39;69.51;100258.47;6155741;23;20413;-84
2023/08/25 03:08:47;;;;;;;12.40;11.13;;;;;;;22.29;69.68;100261.34;6156172;23;20407;-85
2023/08/25 03:11:17;;;;;;;9.77;8.90;;;;;;;22.33;69.92;100260.44;6130211;23;20413;-85
2023/08/25 03:13:49;;;;;;;10.87;10.07;;;;;;;22.23;70.45;100263.34;6135621;23;20807;-84
2023/08/25 03:16:20;;;;;;;11.17;10.17;;;;;;;22.28;70.31;100268.78;6161404;23;20384;-84
2023/08/25 03:18:49;;;;;;;10.77;9.67;;;;;;;22.21;70.82;100267.50;6134729;23;20387;-83
2023/08/25 03:21:19;;;;;;;10.43;9.53;;;;;;;22.27;71.16;100261.63;6135536;23;20376;-84
2023/08/25 03:23:48;;;;;;;11.07;9.77;;;;;;;22.25;70.75;100263.88;6167973;23;20371;-83
2023/08/25 03:26:17;;;;;;;10.30;9.50;;;;;;;22.20;71.18;100260.34;6150121;23;20428;-83
2023/08/25 03:28:49;;;;;;;13.80;9.53;;;;;;;22.17;71.20;100266.47;6146776;23;20409;-82
2023/08/25 03:31:20;;;;;;;11.83;10.83;;;;;;;22.09;71.70;100263.22;6138722;23;20383;-83
2023/08/25 03:33:50;;;;;;;11.07;10.07;;;;;;;22.08;71.90;100264.34;6168385;23;20398;-83
2023/08/25 03:36:19;;;;;;;11.13;9.87;;;;;;;22.03;72.03;100258.88;6143086;23;20737;-84
2023/08/25 03:38:48;;;;;;;9.93;9.03;;;;;;;22.15;71.84;100263.16;6142493;23;20913;-84
2023/08/25 03:41:18;;;;;;;10.23;9.33;;;;;;;22.12;72.18;100263.78;6167139;23;20396;-83
2023/08/25 03:43:48;;;;;;;12.10;11.00;;;;;;;22.27;71.32;100261.63;6174600;23;20826;-83
2023/08/25 03:46:18;;;;;;;11.53;10.40;;;;;;;22.40;70.79;100265.63;6148265;23;20426;-84
2023/08/25 03:48:48;;;;;;;13.40;11.20;;;;;;;22.19;71.64;100264.22;6153927;23;20433;-83
2023/08/25 03:51:17;;;;;;;10.70;9.80;;;;;;;22.16;72.21;100259.31;6181647;23;20357;-83
2023/08/25 03:53:46;;;;;;;11.30;9.83;;;;;;;22.18;72.32;100257.06;6155994;23;20394;-84
2023/08/25 03:56:15;;;;;;;12.17;11.07;;;;;;;22.14;72.66;100256.00;6179833;23;20424;-82
2023/08/25 03:58:45;;;;;;;12.20;11.10;;;;;;;22.13;72.80;100259.88;6151278;23;20392;-84
2023/08/25 04:01:14;;;;;;;11.63;10.43;;;;;;;22.08;72.83;100258.00;6155394;23;20460;-85
2023/08/25 04:03:45;;;;;;;11.07;10.07;;;;;;;22.06;73.06;100261.06;6179285;23;20379;-83
2023/08/25 04:06:14;;;;;;;12.67;11.40;;;;;;;22.01;72.95;100252.88;6152581;23;20402;-83
2023/08/25 04:08:44;;;;;;;11.63;9.90;;;;;;;22.23;72.42;100254.25;6151582;23;20478;-83
2023/08/25 04:11:13;;;;;;;11.63;10.00;;;;;;;22.10;72.86;100262.13;6178224;23;20806;-83
2023/08/25 04:13:42;;;;;;;11.40;10.17;;;;;;;22.01;73.37;100258.38;6180711;23;20345;-84
2023/08/25 04:16:12;;;;;;;12.27;11.27;;;;;;;22.03;73.65;100255.31;6182571;23;20419;-84
2023/08/25 04:18:42;;;;;;;10.63;9.73;;;;;;;21.96;74.14;100261.19;6183880;23;20373;-83
2023/08/25 04:21:14;;;;;;;12.77;11.60;;;;;;;21.92;74.23;100254.59;6159043;23;20407;-83
2023/08/25 04:23:44;;;;;;;12.13;11.03;;;;;;;21.92;73.92;100251.00;6155831;23;20429;-83
2023/08/25 04:26:13;;;;;;;11.27;10.37;;;;;;;21.88;74.08;100261.78;6157045;23;20432;-84
2023/08/25 04:28:43;;;;;;;12.77;11.67;;;;;;;21.93;73.80;100267.25;6178206;23;20390;-83
2023/08/25 04:31:12;;;;;;;11.73;10.77;;;;;;;22.00;73.90;100255.91;6150876;23;20490;-83
2023/08/25 04:33:44;;;;;;;11.67;10.60;;;;;;;22.09;73.42;100263.22;6157835;23;20484;-83
2023/08/25 04:36:15;;;;;;;12.90;11.80;;;;;;;22.28;73.08;100254.19;6158005;23;20405;-83
2023/08/25 04:38:44;;;;;;;11.10;10.20;;;;;;;22.87;70.50;100248.97;6157694;23;20368;-83
2023/08/25 04:41:14;;;;;;;11.60;10.50;;;;;;;23.28;68.24;100256.63;6158193;23;20382;-83
2023/08/25 04:43:43;;;;;;;11.13;10.00;;;;;;;23.24;68.39;100252.78;6157085;23;20402;-83
2023/08/25 04:46:13;;;;;;;11.47;10.53;;;;;;;23.28;68.25;100253.84;6156806;23;20377;-82
2023/08/25 04:48:46;;;;;;;12.23;11.03;;;;;;;23.65;67.26;100247.44;6181408;23;20381;-83
2023/08/25 04:51:17;;;;;;;11.20;10.10;;;;;;;24.05;64.98;100256.88;6154364;23;20396;-82
2023/08/25 04:53:46;;;;;;;12.00;10.80;;;;;;;23.83;65.43;100250.09;6149076;23;20774;-84
2023/08/25 04:56:22;;;;;;;11.30;10.40;;;;;;;23.71;66.17;100258.09;6171483;23;20436;-84
2023/08/25 04:58:51;;;;;;;11.73;10.63;;;;;;;23.48;66.77;100250.75;6169763;23;20378;-84
2023/08/25 05:01:21;;;;;;;11.93;10.73;;;;;;;23.81;65.93;100246.03;6139125;23;20473;-83
2023/08/25 05:03:51;;;;;;;11.03;9.93;;;;;;;24.57;62.50;100247.22;6137392;23;20414;-84
2023/08/25 05:06:22;;;;;;;11.00;10.10;;;;;;;24.68;61.93;100241.19;6142112;23;20517;-84
2023/08/25 05:08:54;;;;;;;11.07;9.87;;;;;;;24.32;62.96;100243.06;6150060;23;20516;-83
2023/08/25 05:11:23;;;;;;;12.70;11.63;;;;;;;24.08;63.72;100239.69;6153169;23;20392;-82
2023/08/25 05:13:52;;;;;;;12.50;10.30;;;;;;;23.78;64.74;100236.38;6145115;23;20426;-83
2023/08/25 05:16:22;;;;;;;15.23;11.70;;;;;;;23.55;65.73;100228.28;6165773;23;20429;-83
2023/08/25 05:19:02;;;;;;;14.97;11.20;;;;;;;23.35;66.26;100230.25;6140524;23;20880;-84
2023/08/25 05:21:35;;;;;;;11.87;10.07;;;;;;;23.26;66.46;100229.31;6139007;23;20459;-84
2023/08/25 05:24:28;;;;;;;12.03;10.83;;;;;;;23.19;66.87;100233.59;6140328;23;20405;-83
2023/08/25 05:27:15;;;;;;;11.63;10.63;;;;;;;23.29;66.56;100234.22;6140757;23;20452;-83
2023/08/25 05:29:49;;;;;;;12.70;10.57;;;;;;;23.29;66.81;100231.44;6170607;23;20363;-83
2023/08/25 05:32:34;;;;;;;12.13;10.17;;;;;;;23.64;66.07;100232.78;6151243;23;20430;-83
2023/08/25 05:35:08;;;;;;;13.97;10.27;;;;;;;24.17;63.78;100230.38;6192135;23;20386;-83
2023/08/25 05:37:44;;;;;;;11.03;9.97;;;;;;;24.46;62.54;100235.56;6156478;23;20410;-83
2023/08/25 05:40:16;;;;;;;11.70;10.70;;;;;;;24.60;62.03;100241.91;6155901;23;20464;-84
2023/08/25 05:42:46;;;;;;;12.53;11.30;;;;;;;24.33;62.52;100241.13;6181280;23;20498;-83
2023/08/25 05:45:16;;;;;;;11.37;10.37;;;;;;;24.13;62.78;100232.09;6155901;23;20425;-82
2023/08/25 05:47:45;;;;;;;11.33;10.20;;;;;;;23.92;63.84;100236.41;6156079;23;20434;-82
2023/08/25 05:50:15;;;;;;;13.17;11.97;;;;;;;23.77;64.54;100231.97;6149568;23;20750;-83
2023/08/25 05:52:47;;;;;;;18.40;11.17;;;;;;;23.64;65.59;100230.03;6171836;23;20859;-82
2023/08/25 05:55:18;;;;;;;24.30;15.63;;;;;;;23.74;65.06;100224.31;6171461;23;20350;-83
2023/08/25 05:57:47;;;;;;;17.53;11.80;;;;;;;23.64;65.98;100230.03;6171871;23;20408;-83
2023/08/25 06:00:18;;;;;;;12.07;10.80;;;;;;;23.76;65.25;100221.25;6167746;23;20410;-84
2023/08/25 06:02:47;;;;;;;12.53;11.23;;;;;;;23.99;64.40;100228.53;6166680;23;20370;-84
2023/08/25 06:05:16;;;;;;;12.10;10.90;;;;;;;24.14;63.66;100224.63;6166509;23;20372;-84
2023/08/25 06:07:47;;;;;;;11.30;10.20;;;;;;;24.02;63.80;100222.38;6167656;23;20409;-84
2023/08/25 06:10:16;;;;;;;11.50;10.40;;;;;;;24.23;63.15;100220.03;6140973;23;20430;-84
2023/08/25 06:12:45;;;;;;;12.33;11.13;;;;;;;24.29;62.85;100227.13;6164796;23;20392;-84
2023/08/25 06:15:15;;;;;;;12.17;10.70;;;;;;;24.40;62.28;100220.22;6165792;23;20858;-84
2023/08/25 06:17:44;;;;;;;14.80;11.17;;;;;;;24.51;62.08;100210.56;6113855;23;20446;-81
2023/08/25 06:20:13;;;;;;;11.53;10.63;;;;;;;24.61;61.91;100221.41;6132760;23;20483;-79
2023/08/25 06:22:43;;;;;;;12.70;11.40;;;;;;;24.81;61.05;100219.28;6133085;23;20397;-81
2023/08/25 06:25:13;;;;;;;15.40;11.00;;;;;;;25.03;60.34;100224.88;6132748;23;20391;-78
2023/08/25 06:27:43;;;;;;;11.30;10.30;;;;;;;25.05;59.71;100231.75;6130147;23;20388;-79
2023/08/25 06:30:13;;;;;;;13.43;11.53;;;;;;;25.19;59.67;100226.13;6104531;23;20399;-79
2023/08/25 06:32:42;;;;;;;12.97;10.47;;;;;;;25.26;59.12;100236.78;6106310;23;20423;-79
2023/08/25 06:35:12;;;;;;;13.73;12.50;;;;;;;25.35;59.02;100244.00;6130445;23;20368;-80
2023/08/25 06:37:41;;;;;;;16.10;11.70;;;;;;;25.44;59.01;100239.34;6130659;23;20391;-80
2023/08/25 06:40:12;;;;;;;11.87;10.60;;;;;;;25.60;58.25;100233.44;6132877;23;20369;-79
2023/08/25 06:42:41;;;;;;;11.20;10.07;;;;;;;25.67;57.43;100236.53;6132655;23;20353;-79
2023/08/25 06:45:12;;;;;;;13.37;10.90;;;;;;;25.65;57.23;100238.84;6105771;23;20390;-79
2023/08/25 06:47:41;;;;;;;12.37;11.40;;;;;;;25.84;56.26;100242.19;6129910;23;20492;-80
2023/08/25 06:50:11;;;;;;;13.43;10.80;;;;;;;25.70;55.84;100233.16;6127233;23;20364;-80
2023/08/25 06:52:40;;;;;;;18.27;10.73;;;;;;;25.61;56.32;100240.59;6127616;23;20418;-80
2023/08/25 06:55:11;;;;;;;11.87;10.80;;;;;;;25.69;56.74;100239.81;6126833;23;20469;-80
2023/08/25 06:57:41;;;;;;;12.53;10.47;;;;;;;25.86;55.87;100245.44;6125734;23;20411;-81
2023/08/25 07:00:12;;;;;;;11.37;10.47;;;;;;;25.95;55.21;100243.50;6128266;23;20398;-80
2023/08/25 07:02:43;;;;;;;18.53;11.40;;;;;;;25.73;56.10;100246.38;6127773;23;20399;-81
2023/08/25 07:05:13;;;;;;;12.50;11.30;;;;;;;25.63;56.64;100247.47;6126568;23;20376;-80
2023/08/25 07:07:43;;;;;;;12.40;11.17;;;;;;;25.92;55.97;100247.75;6127065;23;20730;-81
2023/08/25 07:10:13;;;;;;;11.60;10.57;;;;;;;25.90;56.29;100238.94;6127571;23;20422;-80
2023/08/25 07:12:43;;;;;;;11.37;10.27;;;;;;;26.09;56.06;100237.88;6127961;23;20414;-80
2023/08/25 07:15:12;;;;;;;12.23;11.03;;;;;;;26.12;55.02;100232.50;6140969;23;20356;-80
2023/08/25 07:17:42;;;;;;;11.63;10.40;;;;;;;26.00;56.16;100234.28;6149006;23;20438;-80
2023/08/25 07:20:11;;;;;;;12.27;10.73;;;;;;;25.89;55.57;100236.50;6148147;23;20406;-80
2023/08/25 07:22:41;;;;;;;11.83;10.83;;;;;;;25.84;55.74;100237.47;6113353;23;20414;-80
2023/08/25 07:25:10;;;;;;;12.63;11.33;;;;;;;25.89;55.04;100239.28;6149668;23;20380;-80
2023/08/25 07:27:39;;;;;;;12.27;11.27;;;;;;;25.88;55.57;100243.19;6149808;23;20393;-80
2023/08/25 07:30:10;;;;;;;13.03;11.30;;;;;;;26.06;55.06;100238.50;6132952;23;20394;-80
2023/08/25 07:32:40;;;;;;;10.90;10.00;;;;;;;26.09;56.12;100238.72;6127971;23;20389;-81
2023/08/25 07:35:09;;;;;;;12.27;10.97;;;;;;;26.09;55.61;100238.72;6100793;23;20404;-81
2023/08/25 07:37:41;;;;;;;11.87;10.40;;;;;;;26.29;54.99;100242.84;6126438;23;20895;-81
2023/08/25 07:40:11;;;;;;;12.17;11.07;;;;;;;26.41;54.28;100236.69;6126878;23;20410;-81
2023/08/25 07:42:40;;;;;;;12.33;10.40;;;;;;;26.48;54.34;100242.59;6126041;23;20862;-80
2023/08/25 07:45:11;;;;;;;11.43;10.53;;;;;;;26.63;54.55;100247.66;6126780;23;20418;-81
2023/08/25 07:47:40;;;;;;;11.50;10.40;;;;;;;26.68;53.70;100253.88;6127053;23;20406;-81
2023/08/25 07:50:10;;;;;;;11.53;10.53;;;;;;;26.67;52.70;100259.75;6127649;23;20711;-79
2023/08/25 07:52:40;;;;;;;11.10;10.07;;;;;;;26.69;53.00;100254.69;6129466;23;20430;-81
2023/08/25 07:55:12;;;;;;;10.80;10.07;;;;;;;26.89;52.83;100254.06;6132085;23;20391;-81
2023/08/25 07:57:41;;;;;;;11.30;10.37;;;;;;;26.72;52.81;100254.06;6129371;23;20417;-79
2023/08/25 08:00:15;;;;;;;11.63;10.50;;;;;;;26.62;52.84;100251.59;6128340;23;20448;-81
2023/08/25 08:02:48;;;;;;;11.50;10.60;;;;;;;26.60;52.91;100251.91;6127330;23;20374;-80
2023/08/25 08:05:18;;;;;;;11.83;10.63;;;;;;;26.58;53.42;100256.13;6124997;23;20637;-80
2023/08/25 08:07:48;;;;;;;11.83;10.83;;;;;;;26.91;52.87;100260.13;6099908;23;20430;-81
2023/08/25 08:10:18;;;;;;;10.53;9.70;;;;;;;27.07;52.03;100264.03;6127861;23;20435;-81
2023/08/25 08:12:48;;;;;;;9.73;8.73;;;;;;;27.05;51.73;100255.22;6127273;23;20485;-83
2023/08/25 08:15:18;;;;;;;10.20;9.30;;;;;;;27.21;51.67;100259.13;6125709;23;20365;-82
2023/08/25 08:17:47;;;;;;;10.20;9.20;;;;;;;27.24;51.41;100269.59;6124857;23;20397;-81
2023/08/25 08:20:17;;;;;;;9.90;9.00;;;;;;;27.41;51.58;100279.84;6128570;23;20390;-80
2023/08/25 08:22:46;;;;;;;10.53;8.90;;;;;;;27.38;50.77;100272.19;6128079;23;20397;-81
2023/08/25 08:25:15;;;;;;;10.50;9.60;;;;;;;27.50;50.84;100260.41;6127438;23;20441;-81
2023/08/25 08:27:44;;;;;;;10.13;9.13;;;;;;;27.52;50.73;100258.94;6128119;23;20474;-81
2023/08/25 08:30:16;;;;;;;12.50;10.43;;;;;;;27.54;50.72;100266.97;6131225;23;20365;-81
2023/08/25 08:32:49;;;;;;;10.50;9.53;;;;;;;27.72;50.25;100268.53;6132996;23;20381;-80
2023/08/25 08:35:19;;;;;;;9.73;8.87;;;;;;;27.93;50.59;100265.88;6108527;23;20465;-79
2023/08/25 08:37:48;;;;;;;10.30;8.60;;;;;;;28.02;49.81;100266.66;6132919;23;20410;-81
2023/08/25 08:40:17;;;;;;;10.07;8.17;;;;;;;28.35;50.15;100272.41;6128631;23;20926;-81
2023/08/25 08:42:48;;;;;;;12.93;8.83;;;;;;;28.40;48.97;100272.22;6127852;23;20391;-80
2023/08/25 08:45:18;;;;;;;11.20;9.10;;;;;;;28.35;49.45;100275.19;6128677;23;20439;-81
2023/08/25 08:47:49;;;;;;;9.67;8.83;;;;;;;27.86;49.40;100274.72;6135087;23;20406;-80
2023/08/25 08:50:19;;;;;;;10.23;9.03;;;;;;;27.83;49.82;100269.84;6149878;23;20355;-80
2023/08/25 08:52:49;;;;;;;10.30;9.20;;;;;;;27.92;49.96;100278.97;6150003;23;20415;-80
2023/08/25 08:55:20;;;;;;;9.57;8.87;;;;;;;28.23;49.45;100281.44;6146704;23;20371;-80
2023/08/25 08:57:50;;;;;;;12.13;9.07;;;;;;;28.49;49.81;100281.31;6129383;23;20461;-80
2023/08/25 09:00:21;;;;;;;9.00;8.20;;;;;;;28.64;47.86;100283.53;6108309;23;20417;-81
2023/08/25 09:02:53;;;;;;;9.90;8.90;;;;;;;28.37;48.41;100287.59;6126046;23;20415;-80
2023/08/25 09:05:27;;;;;;;12.07;9.23;;;;;;;28.63;48.47;100284.69;6141786;23;20450;-80
2023/08/25 09:08:02;;;;;;;9.50;8.67;;;;;;;28.80;48.03;100298.53;6129573;23;20433;-81
2023/08/25 09:10:31;;;;;;;9.10;8.33;;;;;;;28.69;48.01;100300.03;6130113;23;20378;-82
2023/08/25 09:13:01;;;;;;;9.10;8.20;;;;;;;28.70;47.87;100293.31;6129256;23;20930;-81
2023/08/25 09:15:34;;;;;;;9.20;8.30;;;;;;;28.73;47.58;100297.41;6131385;23;20421;-81
2023/08/25 09:18:07;;;;;;;10.00;7.73;;;;;;;28.76;48.39;100286.41;6129862;23;20422;-82
2023/08/25 09:20:39;;;;;;;9.10;8.20;;;;;;;28.99;47.88;100295.28;6144826;23;20374;-81
2023/08/25 09:23:10;;;;;;;7.20;6.47;;;;;;;29.20;46.72;100300.81;6146766;23;20886;-82
2023/08/25 09:25:41;;;;;;;7.60;6.90;;;;;;;29.34;46.64;100298.59;6129762;23;20446;-80
2023/08/25 09:28:13;;;;;;;7.20;6.50;;;;;;;29.58;46.82;100304.25;6128163;23;20413;-82
2023/08/25 09:30:45;;;;;;;7.07;6.37;;;;;;;29.79;45.99;100304.22;6129284;23;20375;-81
2023/08/25 09:33:21;;;;;;;7.13;5.70;;;;;;;29.65;45.57;100290.59;6132304;23;20410;-81
2023/08/25 09:35:51;;;;;;;13.63;5.87;;;;;;;29.61;44.57;100292.44;6129837;23;20382;-82
2023/08/25 09:38:23;;;;;;;6.80;5.47;;;;;;;29.76;44.36;100302.13;6128076;23;20411;-79
2023/08/25 09:40:53;;;;;;;10.63;6.20;;;;;;;30.10;43.63;100303.72;6102680;23;20432;-81
2023/08/25 09:43:30;;;;;;;6.00;4.93;;;;;;;30.33;43.58;100301.28;6129486;23;20477;-81
2023/08/25 09:45:59;;;;;;;5.97;4.97;;;;;;;30.73;42.77;100307.00;6128882;23;20470;-81
2023/08/25 09:48:34;;;;;;;5.70;5.07;;;;;;;30.88;42.38;100307.09;6128643;23;20417;-81
2023/08/25 09:51:06;;;;;;;7.27;5.53;;;;;;;31.08;42.30;100296.97;6129659;23;20374;-81
2023/08/25 09:53:37;;;;;;;11.27;6.33;;;;;;;30.80;42.52;100310.00;6102107;23;20932;-80
2023/08/25 09:56:06;;;;;;;7.13;5.97;;;;;;;31.10;42.59;100308.59;6130029;23;20371;-81
2023/08/25 09:58:36;;;;;;;7.20;6.47;;;;;;;31.16;42.60;100304.38;6128667;23;20411;-81
2023/08/25 10:01:06;;;;;;;10.63;8.20;;;;;;;31.11;42.52;100318.59;6130109;23;20398;-81
2023/08/25 10:03:37;;;;;;;10.10;6.73;;;;;;;31.17;42.07;100314.41;6129515;23;20367;-81
2023/08/25 10:06:08;;;;;;;9.20;8.30;;;;;;;31.08;42.17;100336.09;6129996;23;20382;-80
2023/08/25 10:08:39;;;;;;;8.67;6.83;;;;;;;31.02;42.58;100334.69;6102487;23;20445;-82
2023/08/25 10:11:11;;;;;;;7.30;6.70;;;;;;;31.32;42.67;100330.38;6145388;23;20379;-81
2023/08/25 10:13:43;;;;;;;7.63;6.97;;;;;;;31.46;42.60;100325.25;6114421;23;20438;-83
2023/08/25 10:16:13;;;;;;;7.90;7.20;;;;;;;31.36;41.43;100322.94;6135845;23;20399;-82
2023/08/25 10:18:46;;;;;;;9.07;8.13;;;;;;;31.04;42.74;100329.53;6131527;23;20442;-82
2023/08/25 10:21:19;;;;;;;9.57;7.70;;;;;;;30.78;43.36;100326.31;6131080;23;20379;-81
2023/08/25 10:23:52;;;;;;;12.53;7.83;;;;;;;31.02;43.07;100317.94;6128501;23;20371;-82
2023/08/25 10:26:23;;;;;;;12.13;6.63;;;;;;;31.00;42.85;100318.25;6129320;23;20379;-81
2023/08/25 10:28:53;;;;;;;7.00;6.30;;;;;;;31.25;42.45;100313.44;6133174;23;20375;-83
2023/08/25 10:31:23;;;;;;;8.90;7.03;;;;;;;30.97;42.80;100318.94;6130732;23;20379;-81
2023/08/25 10:33:54;;;;;;;7.60;6.80;;;;;;;31.05;41.95;100320.00;6102760;23;20820;-82
2023/08/25 10:36:24;;;;;;;12.17;11.00;;;;;;;31.35;41.63;100324.09;6130167;23;20402;-81
2023/08/25 10:39:10;;;;;;;8.23;6.97;;;;;;;31.27;42.04;100330.66;6129697;23;20379;-82
2023/08/25 10:41:43;;;;;;;6.70;6.10;;;;;;;31.28;42.75;100335.06;6129919;23;20387;-81
2023/08/25 10:44:21;;;;;;;9.20;6.80;;;;;;;31.31;42.38;100328.78;6105024;23;20402;-80
2023/08/25 10:46:51;;;;;;;6.47;5.90;;;;;;;31.55;42.71;100338.25;6149020;23;20418;-80
2023/08/25 10:49:22;;;;;;;8.43;7.60;;;;;;;31.48;42.87;100345.25;6141687;23;20410;-81
2023/08/25 10:52:06;;;;;;;7.67;6.83;;;;;;;31.06;42.95;100339.22;6102815;23;20406;-81
2023/08/25 10:54:35;;;;;;;14.10;7.63;;;;;;;30.95;43.24;100331.63;6129159;23;20422;-80
2023/08/25 10:57:20;;;;;;;10.17;7.67;;;;;;;30.65;43.60;100322.72;6129120;23;20719;-80
2023/08/25 10:59:55;;;;;;;12.37;7.20;;;;;;;30.66;44.04;100332.72;6131392;23;20367;-80
2023/08/25 11:02:37;;;;;;;10.30;8.50;;;;;;;30.27;45.32;100339.78;6136678;23;20430;-80
2023/08/25 11:05:45;;;;;;;9.23;6.17;;;;;;;30.31;44.42;100335.13;6139084;23;20370;-82
2023/08/25 11:08:28;;;;;;;8.60;7.10;;;;;;;30.10;44.17;100334.41;6133518;23;20432;-82
2023/08/25 11:11:14;;;;;;;8.03;6.53;;;;;;;29.88;44.82;100327.25;6130188;23;20414;-81
2023/08/25 11:13:44;;;;;;;8.13;7.40;;;;;;;29.88;45.16;100340.38;6130092;23;20498;-81
2023/08/25 11:16:14;;;;;;;9.70;8.80;;;;;;;29.94;45.39;100339.03;6132698;23;20394;-81
2023/08/25 11:18:44;;;;;;;7.10;5.93;;;;;;;29.90;45.88;100338.91;6127327;23;20751;-81
2023/08/25 11:21:15;;;;;;;7.13;5.43;;;;;;;29.99;44.67;100336.00;6130391;23;20390;-81
2023/08/25 11:23:45;;;;;;;6.90;6.20;;;;;;;30.18;45.00;100337.09;6133457;23;20378;-81
2023/08/25 11:26:17;;;;;;;7.17;6.30;;;;;;;30.36;44.59;100334.91;6149414;23;20359;-80
2023/08/25 11:28:49;;;;;;;5.70;5.17;;;;;;;30.33;44.56;100332.81;6145596;23;20744;-79
2023/08/25 11:31:27;;;;;;;7.63;6.13;;;;;;;30.49;44.48;100328.22;6139217;23;20377;-82
2023/08/25 11:33:56;;;;;;;6.97;5.93;;;;;;;30.13;43.90;100328.13;6136749;23;20469;-80
2023/08/25 11:36:27;;;;;;;7.17;6.17;;;;;;;29.76;44.87;100333.63;6106731;23;20489;-81